Time;durP1;ratioP1;P1;durP2;ratioP2;P2;SDS_P1;SDS_P2;PMS_P1;PMS_P2;Temp;Humidity;BMP_temperature;BMP_pressure;BME280_temperature;BME280_humidity;BME280_pressure;Samples;Min_cycle;Max_cycle;Signal;HPM_P1;HPM_P2
2022/11/16 05:00:28;;;;;;;1999.90;999.90;;;10.10;99.90;;;;;;5976833;23;20132;-76
2022/11/16 05:02:53;;;;;;;1999.90;999.90;;;10.10;99.90;;;;;;4973508;28;20423;-76
2022/11/16 05:05:19;;;;;;;1999.90;999.90;;;10.10;99.90;;;;;;4974511;28;20039;-76
2022/11/16 05:07:45;;;;;;;1999.90;999.90;;;10.10;99.90;;;;;;4975312;28;20081;-75
2022/11/16 05:10:11;;;;;;;1999.90;999.90;;;10.10;99.90;;;;;;4975135;28;20481;-75
2022/11/16 05:12:37;;;;;;;1999.90;999.90;;;10.10;99.90;;;;;;4975225;28;20035;-76
2022/11/16 05:15:04;;;;;;;1999.90;999.90;;;10.10;99.90;;;;;;4975172;28;20032;-75
2022/11/16 05:17:30;;;;;;;1999.90;999.90;;;10.10;99.90;;;;;;4973548;28;20038;-76
2022/11/16 05:22:40;;;;;;;1999.90;999.90;;;10.10;99.90;;;;;;4972576;28;20035;-76
2022/11/16 05:25:07;;;;;;;1999.90;999.90;;;10.00;99.90;;;;;;4966637;28;20044;-79
2022/11/16 05:27:32;;;;;;;1999.90;999.90;;;10.00;99.90;;;;;;4976496;28;20110;-79
2022/11/16 05:29:58;;;;;;;1999.90;999.90;;;9.90;99.90;;;;;;4976656;28;20106;-79
2022/11/16 05:32:25;;;;;;;1999.90;999.90;;;10.00;99.90;;;;;;4974621;28;20047;-79
2022/11/16 05:34:51;;;;;;;1999.90;999.90;;;10.00;99.90;;;;;;4976236;28;20075;-79
2022/11/16 05:37:18;;;;;;;1999.90;999.90;;;10.00;99.90;;;;;;4974239;28;20070;-79
2022/11/16 05:39:43;;;;;;;1999.90;999.90;;;10.00;99.90;;;;;;4976764;28;20389;-79
2022/11/16 05:42:09;;;;;;;1999.90;999.90;;;10.00;99.90;;;;;;4974325;28;20118;-78
2022/11/16 05:44:35;;;;;;;1999.90;999.90;;;10.00;99.90;;;;;;4973780;28;20089;-79
2022/11/16 05:47:00;;;;;;;1999.90;999.90;;;9.90;99.90;;;;;;4969061;28;20374;-79
2022/11/16 05:49:26;;;;;;;1999.90;999.90;;;10.00;99.90;;;;;;4971100;28;20437;-79
2022/11/16 05:51:52;;;;;;;1999.90;999.90;;;10.00;99.90;;;;;;4972411;28;20046;-79
2022/11/16 05:54:20;;;;;;;1999.90;999.90;;;10.00;99.90;;;;;;4977881;28;20043;-79
2022/11/16 05:56:47;;;;;;;1999.90;999.90;;;10.00;99.90;;;;;;4979357;28;20512;-79
2022/11/16 05:59:14;;;;;;;1999.90;999.90;;;9.90;99.90;;;;;;4985113;28;20047;-80
2022/11/16 06:01:40;;;;;;;1999.90;999.90;;;9.90;99.90;;;;;;4981682;28;20170;-80
2022/11/16 06:04:06;;;;;;;1999.90;999.90;;;9.90;99.90;;;;;;4982956;28;20489;-80
2022/11/16 06:06:32;;;;;;;1999.90;999.90;;;9.90;99.90;;;;;;4977544;28;20515;-78
2022/11/16 06:08:57;;;;;;;1999.90;999.90;;;9.90;99.90;;;;;;4978158;28;20035;-78
2022/11/16 06:11:23;;;;;;;1999.90;999.90;;;9.90;99.90;;;;;;4977815;28;20389;-78
2022/11/16 06:13:49;;;;;;;1999.90;999.90;;;9.80;99.90;;;;;;4977764;28;20123;-78
2022/11/16 06:16:15;;;;;;;1999.90;999.90;;;9.90;99.90;;;;;;4978659;28;20035;-80
2022/11/16 06:18:44;;;;;;;1999.90;999.90;;;9.90;99.90;;;;;;4977914;28;20027;-81
2022/11/16 06:21:11;;;;;;;1999.90;999.90;;;9.80;99.90;;;;;;4979674;28;20413;-80
2022/11/16 06:23:36;;;;;;;1999.90;999.90;;;9.80;99.90;;;;;;4979474;28;20043;-79
2022/11/16 06:26:04;;;;;;;1999.90;999.90;;;9.80;99.90;;;;;;4979959;28;20032;-80
2022/11/16 06:28:29;;;;;;;1999.90;999.90;;;9.80;99.90;;;;;;4978906;28;20031;-80
2022/11/16 06:30:55;;;;;;;1999.90;999.90;;;9.80;99.90;;;;;;4980281;28;20035;-86
2022/11/16 06:33:20;;;;;;;1999.90;999.90;;;9.80;99.90;;;;;;4979940;28;20044;-83
2022/11/16 06:35:46;;;;;;;1999.90;999.90;;;9.80;99.90;;;;;;4983089;28;20138;-84
2022/11/16 06:38:17;;;;;;;1999.90;999.90;;;9.80;99.90;;;;;;4983765;28;20474;-83
2022/11/16 06:40:53;;;;;;;1999.90;999.90;;;9.80;99.90;;;;;;4979422;28;20046;-87
2022/11/16 06:43:19;;;;;;;1999.90;999.90;;;9.70;99.90;;;;;;4980734;28;20031;-84
2022/11/16 06:45:49;;;;;;;1999.90;999.90;;;9.70;99.90;;;;;;4980795;28;20037;-81
2022/11/16 06:48:16;;;;;;;1999.90;999.90;;;9.70;99.90;;;;;;4979045;28;20480;-82
2022/11/16 06:50:41;;;;;;;1999.90;999.90;;;9.60;99.90;;;;;;4981156;28;20067;-83
2022/11/16 06:53:07;;;;;;;1999.90;999.90;;;9.60;99.90;;;;;;4988928;28;20066;-81
2022/11/16 06:55:33;;;;;;;1999.90;999.90;;;9.70;99.90;;;;;;4987242;28;20534;-82
2022/11/16 06:57:59;;;;;;;1999.90;999.90;;;9.70;99.90;;;;;;4977586;28;20038;-81
2022/11/16 07:00:25;;;;;;;1999.90;999.90;;;9.70;99.90;;;;;;4979243;28;20046;-84
2022/11/16 07:02:50;;;;;;;1999.90;999.90;;;9.80;99.90;;;;;;4977894;28;20452;-81
2022/11/16 07:05:16;;;;;;;1999.90;999.90;;;9.80;99.90;;;;;;4978332;28;20067;-81
2022/11/16 07:07:42;;;;;;;1999.90;999.90;;;10.00;99.90;;;;;;4978986;28;20031;-83
2022/11/16 07:10:08;;;;;;;1999.90;999.90;;;9.80;99.90;;;;;;4978599;28;20039;-82
2022/11/16 07:12:33;;;;;;;1999.90;999.90;;;9.80;99.90;;;;;;4978534;28;20023;-83
2022/11/16 07:14:59;;;;;;;1999.90;999.90;;;9.80;99.90;;;;;;4976566;28;20035;-82
2022/11/16 07:17:24;;;;;;;1999.90;999.90;;;9.80;99.90;;;;;;4978366;28;20408;-82
2022/11/16 07:19:50;;;;;;;1999.90;999.90;;;9.80;99.90;;;;;;4977022;28;20509;-83
2022/11/16 07:22:15;;;;;;;1999.90;999.90;;;9.90;99.90;;;;;;4977285;28;20118;-83
2022/11/16 07:24:41;;;;;;;1999.90;999.90;;;9.90;99.90;;;;;;4978390;28;20054;-82
2022/11/16 07:27:07;;;;;;;1999.90;999.90;;;9.90;99.90;;;;;;4978159;28;20433;-82
2022/11/16 07:29:33;;;;;;;1999.90;999.90;;;10.00;99.90;;;;;;4977960;28;20036;-82
2022/11/16 07:31:58;;;;;;;1999.90;999.90;;;10.10;99.90;;;;;;4977193;28;20031;-82
2022/11/16 07:34:25;;;;;;;1999.90;999.90;;;10.10;99.90;;;;;;4976568;28;20493;-82
2022/11/16 07:36:50;;;;;;;1999.90;999.90;;;10.20;99.90;;;;;;4976170;28;20035;-82
2022/11/16 07:39:16;;;;;;;1999.90;999.90;;;10.30;99.90;;;;;;4977887;28;20047;-82
2022/11/16 07:41:43;;;;;;;1999.90;999.90;;;10.30;99.90;;;;;;4976989;28;20058;-80
2022/11/16 07:44:08;;;;;;;1999.90;999.90;;;10.30;99.90;;;;;;4978543;28;20035;-80
2022/11/16 07:46:34;;;;;;;1999.90;999.90;;;10.30;99.90;;;;;;4976257;28;20035;-82
2022/11/16 07:48:59;;;;;;;1999.90;999.90;;;10.20;99.90;;;;;;4977903;28;20044;-82
2022/11/16 07:51:25;;;;;;;1999.90;999.90;;;10.20;99.90;;;;;;4977851;28;20044;-82
2022/11/16 07:53:57;;;;;;;1999.90;999.90;;;10.30;99.90;;;;;;4977831;28;20047;-82
2022/11/16 07:56:23;;;;;;;1999.90;999.90;;;10.30;99.90;;;;;;4975828;28;20047;-82
2022/11/16 07:58:49;;;;;;;1999.90;999.90;;;10.40;99.90;;;;;;4976304;28;20046;-82
2022/11/16 08:01:16;;;;;;;1999.90;999.90;;;10.40;99.90;;;;;;4974348;28;20043;-82
2022/11/16 08:03:43;;;;;;;1999.90;999.90;;;10.50;99.90;;;;;;4977935;28;20066;-82
2022/11/16 08:06:15;;;;;;;1999.90;999.90;;;10.50;99.90;;;;;;4970171;28;20569;-82
2022/11/16 08:08:41;;;;;;;1999.90;999.90;;;10.60;99.90;;;;;;4969761;28;20461;-83
2022/11/16 08:11:09;;;;;;;1999.90;999.90;;;10.60;99.90;;;;;;4980889;28;20203;-84
2022/11/16 08:13:36;;;;;;;1999.90;999.90;;;10.60;99.90;;;;;;4978406;28;20797;-83
2022/11/16 08:16:14;;;;;;;1999.90;999.90;;;10.60;99.90;;;;;;4978159;28;20071;-83
2022/11/16 08:18:40;;;;;;;1999.90;999.90;;;10.70;99.90;;;;;;4968073;28;20035;-84
2022/11/16 08:21:07;;;;;;;1999.90;999.90;;;10.70;99.90;;;;;;4964537;28;20039;-83
2022/11/16 08:23:33;;;;;;;1999.90;999.90;;;10.70;99.90;;;;;;4968111;28;20032;-83
2022/11/16 08:26:19;;;;;;;1999.90;999.90;;;10.70;99.90;;;;;;4966329;28;20055;-84
2022/11/16 08:28:47;;;;;;;1999.90;999.90;;;10.80;99.90;;;;;;4978917;28;20035;-83
2022/11/16 08:31:17;;;;;;;1999.90;999.90;;;10.80;99.90;;;;;;4976941;28;20034;-84
2022/11/16 08:33:43;;;;;;;1999.90;999.90;;;10.80;99.90;;;;;;4976048;28;20192;-83
2022/11/16 08:36:12;;;;;;;1999.90;999.90;;;10.80;99.90;;;;;;4975617;28;20413;-81
2022/11/16 08:38:39;;;;;;;1999.90;999.90;;;10.90;99.90;;;;;;4976207;28;20756;-82
2022/11/16 08:41:06;;;;;;;1999.90;999.90;;;11.00;99.90;;;;;;4976562;28;20027;-80
2022/11/16 08:43:32;;;;;;;1999.90;999.90;;;11.10;99.90;;;;;;4975144;28;20791;-80
2022/11/16 08:45:59;;;;;;;1999.90;999.90;;;11.10;99.90;;;;;;4974805;28;20086;-80
2022/11/16 08:48:25;;;;;;;1999.90;999.90;;;11.10;99.90;;;;;;4975570;28;20046;-80
2022/11/16 08:50:50;;;;;;;1999.90;999.90;;;11.10;99.90;;;;;;4967709;28;20486;-80
2022/11/16 08:53:16;;;;;;;1999.90;999.90;;;11.20;99.90;;;;;;4958893;28;20039;-81
2022/11/16 08:55:42;;;;;;;1999.90;999.90;;;11.30;99.90;;;;;;4956474;28;20036;-81
2022/11/16 08:58:08;;;;;;;1999.90;999.90;;;11.40;99.90;;;;;;4957825;28;20501;-81
2022/11/16 09:00:34;;;;;;;1999.90;999.90;;;11.50;99.90;;;;;;4956496;28;20216;-79
2022/11/16 09:03:00;;;;;;;1999.90;999.90;;;11.50;99.90;;;;;;4958358;28;20067;-83
2022/11/16 09:05:26;;;;;;;1999.90;999.90;;;11.50;99.90;;;;;;4955072;28;20196;-82
2022/11/16 09:07:51;;;;;;;1999.90;999.90;;;11.60;99.90;;;;;;4956720;28;20064;-83
2022/11/16 09:10:21;;;;;;;1999.90;999.90;;;11.60;99.90;;;;;;4975624;28;20043;-82
2022/11/16 09:12:50;;;;;;;1999.90;999.90;;;11.50;99.90;;;;;;4976381;28;20030;-83
2022/11/16 09:15:18;;;;;;;1999.90;999.90;;;11.60;99.90;;;;;;4976626;28;20098;-84
2022/11/16 09:17:44;;;;;;;1999.90;999.90;;;11.60;99.90;;;;;;4977526;28;20066;-83
2022/11/16 09:20:10;;;;;;;1999.90;999.90;;;11.60;99.90;;;;;;4977299;28;20035;-79
2022/11/16 09:22:35;;;;;;;1999.90;999.90;;;11.60;99.90;;;;;;4980877;28;20390;-79
2022/11/16 09:25:01;;;;;;;1999.90;999.90;;;11.50;99.90;;;;;;4980735;28;20050;-83
2022/11/16 09:27:27;;;;;;;1999.90;999.90;;;11.50;99.90;;;;;;4982567;28;20036;-80
2022/11/16 09:29:52;;;;;;;1999.90;999.90;;;11.50;99.90;;;;;;4981672;28;20560;-80
2022/11/16 09:32:18;;;;;;;1999.90;999.90;;;11.60;99.90;;;;;;4983031;28;20035;-83
2022/11/16 09:34:43;;;;;;;1999.90;999.90;;;11.70;99.90;;;;;;4986898;28;20035;-82
2022/11/16 09:37:09;;;;;;;1999.90;999.90;;;11.60;99.90;;;;;;4983518;28;20041;-82
2022/11/16 09:39:34;;;;;;;1999.90;999.90;;;11.50;99.90;;;;;;4983983;28;20046;-82
2022/11/16 09:42:27;;;;;;;1999.90;999.90;;;11.50;99.90;;;;;;4971981;28;20512;-80
2022/11/16 09:45:03;;;;;;;1999.90;999.90;;;11.40;99.90;;;;;;4975758;28;20553;-83
2022/11/16 09:47:31;;;;;;;1999.90;999.90;;;11.40;99.90;;;;;;4968678;28;20020;-81
2022/11/16 09:50:02;;;;;;;1999.90;999.90;;;11.40;99.90;;;;;;4984693;28;20130;-82
2022/11/16 09:52:35;;;;;;;1999.90;999.90;;;11.50;99.90;;;;;;4983693;28;20039;-82
2022/11/16 09:55:24;;;;;;;1999.90;999.90;;;11.60;99.90;;;;;;4982892;28;20130;-81
2022/11/16 09:57:54;;;;;;;1999.90;999.90;;;11.80;99.90;;;;;;4984864;28;20035;-82
2022/11/16 10:00:22;;;;;;;1999.90;999.90;;;11.70;99.90;;;;;;4980890;28;20412;-82
2022/11/16 10:02:55;;;;;;;1999.90;999.90;;;11.70;99.90;;;;;;4983897;28;20038;-81
2022/11/16 10:05:29;;;;;;;1999.90;999.90;;;11.70;99.90;;;;;;4984111;28;20083;-80
2022/11/16 10:08:09;;;;;;;1999.90;999.90;;;11.60;99.90;;;;;;4983143;28;20046;-81
2022/11/16 10:10:49;;;;;;;1999.90;999.90;;;11.60;99.90;;;;;;4983057;28;20110;-81
2022/11/16 10:13:33;;;;;;;1999.90;999.90;;;11.70;99.90;;;;;;4985006;28;20053;-80
2022/11/16 10:16:34;;;;;;;1999.90;999.90;;;11.70;99.90;;;;;;4990977;28;20138;-79
2022/11/16 10:19:36;;;;;;;1999.90;999.90;;;11.80;99.90;;;;;;4984203;28;20107;-80
2022/11/16 10:22:26;;;;;;;1999.90;999.90;;;12.00;99.90;;;;;;4979561;28;20635;-80
2022/11/16 10:25:10;;;;;;;1999.90;999.90;;;12.20;99.90;;;;;;4977991;28;20516;-82
2022/11/16 10:27:57;;;;;;;1999.90;999.90;;;12.10;99.90;;;;;;4981264;28;20039;-81
2022/11/16 10:30:23;;;;;;;1999.90;999.90;;;12.10;99.90;;;;;;4979476;28;20035;-80
2022/11/16 10:33:05;;;;;;;1999.90;999.90;;;12.20;99.90;;;;;;4981605;28;20366;-81
2022/11/16 10:35:38;;;;;;;1999.90;999.90;;;12.40;99.90;;;;;;4980926;28;20079;-81
2022/11/16 10:38:12;;;;;;;1999.90;999.90;;;12.50;99.90;;;;;;4979779;28;20437;-81
2022/11/16 10:40:40;;;;;;;1999.90;999.90;;;12.50;99.90;;;;;;4982009;28;20524;-81
2022/11/16 10:43:31;;;;;;;1999.90;999.90;;;12.70;99.90;;;;;;4980296;28;20114;-81
2022/11/16 10:46:24;;;;;;;1999.90;999.90;;;12.70;99.90;;;;;;4981929;28;20548;-81
2022/11/16 10:49:20;;;;;;;1999.90;999.90;;;12.50;99.90;;;;;;4980639;28;20106;-81
2022/11/16 10:51:46;;;;;;;1999.90;999.90;;;12.20;99.90;;;;;;4980430;28;20047;-81
2022/11/16 10:54:16;;;;;;;1999.90;999.90;;;12.10;99.90;;;;;;4981015;28;20039;-81
2022/11/16 10:56:48;;;;;;;1999.90;999.90;;;12.00;99.90;;;;;;4980627;28;20091;-81
2022/11/16 10:59:17;;;;;;;1999.90;999.90;;;11.90;99.90;;;;;;4981035;28;20046;-81
2022/11/16 11:01:48;;;;;;;1999.90;999.90;;;11.90;99.90;;;;;;4978164;28;20082;-81
2022/11/16 11:04:26;;;;;;;1999.90;999.90;;;12.00;99.90;;;;;;4980490;28;20039;-81
2022/11/16 11:07:12;;;;;;;1999.90;999.90;;;12.00;99.90;;;;;;4980400;28;20066;-81
2022/11/16 11:09:40;;;;;;;1999.90;999.90;;;12.10;99.90;;;;;;4979784;28;20201;-82
2022/11/16 11:12:38;;;;;;;1999.90;999.90;;;12.20;99.90;;;;;;4981252;28;20043;-81
2022/11/16 11:15:10;;;;;;;1999.90;999.90;;;12.40;99.90;;;;;;4979930;28;20050;-81
2022/11/16 11:17:38;;;;;;;1999.90;999.90;;;12.40;99.90;;;;;;4980738;28;20118;-80
2022/11/16 11:20:15;;;;;;;1999.90;999.90;;;12.30;99.90;;;;;;4980589;28;20089;-81
2022/11/16 11:23:00;;;;;;;1999.90;999.90;;;12.20;99.90;;;;;;4979376;28;20409;-81
2022/11/16 11:25:32;;;;;;;1999.90;999.90;;;12.20;99.90;;;;;;4980464;28;20039;-81
2022/11/16 11:28:18;;;;;;;1999.90;999.90;;;12.20;99.90;;;;;;4980151;28;20477;-81
2022/11/16 11:30:57;;;;;;;1999.90;999.90;;;12.20;99.90;;;;;;4979079;28;20046;-80
2022/11/16 11:33:25;;;;;;;1999.90;999.90;;;12.30;99.90;;;;;;4980773;28;20027;-80
2022/11/16 11:36:17;;;;;;;1999.90;999.90;;;12.40;99.90;;;;;;4979794;28;20061;-81
2022/11/16 11:39:12;;;;;;;1999.90;999.90;;;12.30;99.90;;;;;;4975407;28;20050;-81
2022/11/16 11:41:43;;;;;;;1999.90;999.90;;;12.30;99.90;;;;;;4965274;28;20047;-80
2022/11/16 11:44:11;;;;;;;1999.90;999.90;;;12.10;99.90;;;;;;4978070;28;20605;-80
2022/11/16 11:46:38;;;;;;;1999.90;999.90;;;12.00;99.90;;;;;;4980099;28;20050;-80
2022/11/16 11:49:26;;;;;;;1999.90;999.90;;;11.90;99.90;;;;;;4980700;28;20529;-80
2022/11/16 11:51:55;;;;;;;1999.90;999.90;;;11.90;99.90;;;;;;4979020;28;20496;-80
2022/11/16 11:54:39;;;;;;;1999.90;999.90;;;11.90;99.90;;;;;;4980205;28;20047;-80
2022/11/16 11:57:14;;;;;;;1999.90;999.90;;;12.10;99.90;;;;;;4980224;28;20212;-80
2022/11/16 11:59:40;;;;;;;1999.90;999.90;;;12.30;99.90;;;;;;4980277;28;20039;-80
2022/11/16 12:02:40;;;;;;;1999.90;999.90;;;12.50;99.90;;;;;;4978651;28;20043;-79
2022/11/16 12:05:18;;;;;;;1999.90;999.90;;;12.80;99.90;;;;;;4980388;28;20046;-80
2022/11/16 12:08:02;;;;;;;1999.90;999.90;;;12.90;99.90;;;;;;4978854;28;20094;-80
2022/11/16 12:10:45;;;;;;;1999.90;999.90;;;13.00;99.90;;;;;;4978196;28;20045;-80
2022/11/16 12:13:29;;;;;;;1999.90;999.90;;;13.10;99.90;;;;;;4979145;28;20035;-80
2022/11/16 12:16:14;;;;;;;1999.90;999.90;;;13.40;99.90;;;;;;4980210;28;20023;-80
2022/11/16 12:18:54;;;;;;;1999.90;999.90;;;13.60;99.90;;;;;;4979478;28;20035;-80
2022/11/16 12:21:32;;;;;;;1999.90;999.90;;;13.80;99.90;;;;;;4978405;28;20035;-80
2022/11/16 12:24:27;;;;;;;1999.90;999.90;;;14.10;99.90;;;;;;4980595;28;20105;-80
2022/11/16 12:27:54;;;;;;;1999.90;999.90;;;14.20;99.90;;;;;;4979365;28;20043;-80
2022/11/16 12:30:23;;;;;;;1999.90;999.90;;;14.40;99.90;;;;;;4921545;29;20036;-80
2022/11/16 12:33:23;;;;;;;1999.90;999.90;;;14.50;99.90;;;;;;4939251;29;20047;-80
2022/11/16 12:36:06;;;;;;;1999.90;999.90;;;14.60;99.90;;;;;;4967117;28;20047;-80
2022/11/16 12:38:57;;;;;;;1999.90;999.90;;;14.60;99.90;;;;;;4980595;28;20560;-80
2022/11/16 12:41:25;;;;;;;1999.90;999.90;;;14.70;99.90;;;;;;4980040;28;20126;-80
2022/11/16 12:44:13;;;;;;;1999.90;999.90;;;14.50;99.90;;;;;;4980534;28;20023;-80
2022/11/16 12:47:07;;;;;;;1999.90;999.90;;;14.10;99.90;;;;;;4980144;28;20036;-80
2022/11/16 12:50:04;;;;;;;1999.90;999.90;;;13.90;99.90;;;;;;4980774;28;20764;-80
2022/11/16 12:52:57;;;;;;;1999.90;999.90;;;13.90;99.90;;;;;;4975343;28;20059;-80
2022/11/16 12:55:44;;;;;;;1999.90;999.90;;;14.10;99.90;;;;;;4980167;28;20152;-80
2022/11/16 12:58:10;;;;;;;1999.90;999.90;;;14.00;99.90;;;;;;4983901;28;20035;-80
2022/11/16 13:01:09;;;;;;;1999.90;999.90;;;14.00;99.90;;;;;;4981639;28;20042;-80
2022/11/16 13:03:50;;;;;;;1999.90;999.90;;;13.80;99.90;;;;;;4976164;28;20046;-80
2022/11/16 13:06:36;;;;;;;1999.90;999.90;;;13.50;99.90;;;;;;4983435;28;20062;-80
2022/11/16 13:09:11;;;;;;;1999.90;999.90;;;13.20;99.90;;;;;;4982311;28;20071;-80
2022/11/16 13:11:41;;;;;;;1999.90;999.90;;;13.20;99.90;;;;;;4982556;28;20043;-80
2022/11/16 13:14:18;;;;;;;1999.90;999.90;;;13.10;99.90;;;;;;4983823;28;20511;-80
2022/11/16 13:16:45;;;;;;;1999.90;999.90;;;13.20;99.90;;;;;;4982227;28;20416;-80
2022/11/16 13:19:13;;;;;;;1999.90;999.90;;;13.20;99.90;;;;;;4982508;28;20066;-80
2022/11/16 13:22:06;;;;;;;1999.90;999.90;;;13.20;99.90;;;;;;4984239;28;20408;-80
2022/11/16 13:24:39;;;;;;;1999.90;999.90;;;13.20;99.90;;;;;;4984854;28;20031;-80
2022/11/16 13:27:14;;;;;;;1999.90;999.90;;;13.30;99.90;;;;;;4983934;28;20041;-81
2022/11/16 13:30:20;;;;;;;1999.90;999.90;;;13.00;99.90;;;;;;4981377;28;20046;-80
2022/11/16 13:32:54;;;;;;;1999.90;999.90;;;13.00;99.90;;;;;;4982523;28;20043;-81
2022/11/16 13:35:20;;;;;;;1999.90;999.90;;;12.90;99.90;;;;;;4984817;28;20182;-80
2022/11/16 13:37:47;;;;;;;1999.90;999.90;;;12.90;99.90;;;;;;4986494;28;20108;-80
2022/11/16 13:40:32;;;;;;;1999.90;999.90;;;12.90;99.90;;;;;;4991585;28;20493;-79
2022/11/16 13:43:09;;;;;;;1999.90;999.90;;;13.10;99.90;;;;;;4984213;28;20035;-78
2022/11/16 13:45:35;;;;;;;1999.90;999.90;;;13.30;99.90;;;;;;4978456;28;20114;-79
2022/11/16 13:48:05;;;;;;;1999.90;999.90;;;13.50;99.90;;;;;;4980158;28;20068;-79
2022/11/16 13:50:37;;;;;;;1999.90;999.90;;;13.50;99.90;;;;;;4978173;28;20043;-78
2022/11/16 13:53:12;;;;;;;1999.90;999.90;;;13.40;99.90;;;;;;4981933;28;20549;-79
2022/11/16 13:55:42;;;;;;;1999.90;999.90;;;13.40;99.90;;;;;;4980496;28;20122;-79
2022/11/16 13:58:17;;;;;;;1999.90;999.90;;;13.30;99.90;;;;;;4994430;28;20035;-80
2022/11/16 14:00:57;;;;;;;1999.90;999.90;;;13.30;99.90;;;;;;4998595;28;20050;-74
2022/11/16 14:03:28;;;;;;;1999.90;999.90;;;13.30;99.90;;;;;;4998044;28;20035;-81
2022/11/16 14:05:53;;;;;;;1999.90;999.90;;;13.30;99.90;;;;;;4999640;28;20042;-82
2022/11/16 14:08:19;;;;;;;1999.90;999.90;;;13.40;99.90;;;;;;4998929;28;20030;-81
2022/11/16 14:10:47;;;;;;;1999.90;999.90;;;13.50;99.90;;;;;;5001218;28;20057;-80
2022/11/16 14:13:46;;;;;;;1999.90;999.90;;;13.40;99.90;;;;;;5002348;28;20505;-81
2022/11/16 14:16:18;;;;;;;1999.90;999.90;;;13.60;99.90;;;;;;4969403;28;20051;-80
2022/11/16 14:18:46;;;;;;;1999.90;999.90;;;13.60;99.90;;;;;;4982510;28;20027;-80
2022/11/16 14:21:39;;;;;;;1999.90;999.90;;;13.90;99.90;;;;;;5001693;28;20077;-81
2022/11/16 14:24:15;;;;;;;1999.90;999.90;;;13.90;99.90;;;;;;4999233;28;20038;-81
2022/11/16 14:27:09;;;;;;;1999.90;999.90;;;13.90;99.90;;;;;;4959007;28;20075;-81
2022/11/16 14:30:17;;;;;;;1999.90;999.90;;;14.00;99.90;;;;;;4959302;28;20038;-81
2022/11/16 14:32:48;;;;;;;1999.90;999.90;;;14.10;99.90;;;;;;4959014;28;20047;-81
2022/11/16 14:35:41;;;;;;;1999.90;999.90;;;14.00;99.90;;;;;;4958347;28;20529;-80
2022/11/16 14:38:20;;;;;;;1999.90;999.90;;;14.00;99.90;;;;;;4960585;28;20035;-80
2022/11/16 14:40:49;;;;;;;1999.90;999.90;;;13.80;99.90;;;;;;4968318;28;20043;-81
2022/11/16 14:43:26;;;;;;;1999.90;999.90;;;13.80;99.90;;;;;;4977585;28;20035;-80
2022/11/16 14:45:55;;;;;;;1999.90;999.90;;;13.80;99.90;;;;;;4963222;28;20039;-81
2022/11/16 14:48:24;;;;;;;1999.90;999.90;;;13.70;99.90;;;;;;4967378;28;20055;-81
2022/11/16 14:51:03;;;;;;;1999.90;999.90;;;13.40;99.90;;;;;;4966668;28;20084;-81
2022/11/16 14:53:29;;;;;;;1999.90;999.90;;;13.10;99.90;;;;;;4958956;28;20123;-81
2022/11/16 14:56:24;;;;;;;1999.90;999.90;;;12.70;99.90;;;;;;4974107;28;20040;-81
2022/11/16 14:58:52;;;;;;;1999.90;999.90;;;12.50;99.90;;;;;;4960387;28;20039;-81
2022/11/16 15:01:21;;;;;;;1999.90;999.90;;;12.40;99.90;;;;;;4974121;28;20032;-81
2022/11/16 15:04:08;;;;;;;1999.90;999.90;;;12.20;99.90;;;;;;4966929;28;20035;-80
2022/11/16 15:06:44;;;;;;;1999.90;999.90;;;12.10;99.90;;;;;;4971835;28;20075;-81
2022/11/16 15:09:39;;;;;;;1999.90;999.90;;;12.00;99.90;;;;;;4968955;28;20042;-81
2022/11/16 15:15:03;;;;;;;1999.90;999.90;;;11.50;99.90;;;;;;4970150;28;20118;-81
2022/11/16 15:17:28;;;;;;;1999.90;999.90;;;11.30;99.90;;;;;;4970140;28;20114;-81
2022/11/16 15:20:18;;;;;;;1999.90;999.90;;;11.10;99.90;;;;;;4971829;28;20468;-81
2022/11/16 15:22:52;;;;;;;1999.90;999.90;;;10.80;99.90;;;;;;4990529;28;20098;-81
2022/11/16 15:25:22;;;;;;;1999.90;999.90;;;10.70;99.90;;;;;;4975463;28;20494;-81
2022/11/16 15:27:48;;;;;;;1999.90;999.90;;;10.70;99.90;;;;;;4976051;28;20090;-81
2022/11/16 15:30:36;;;;;;;1999.90;999.90;;;10.60;99.90;;;;;;4977682;28;20438;-81
2022/11/16 15:33:08;;;;;;;1999.90;999.90;;;10.70;99.90;;;;;;4965164;28;20293;-81
2022/11/16 15:35:36;;;;;;;1999.90;999.90;;;10.60;99.90;;;;;;4972022;28;20043;-81
2022/11/16 15:38:13;;;;;;;1999.90;999.90;;;10.70;99.90;;;;;;4976641;28;20038;-81
2022/11/16 15:40:41;;;;;;;1999.90;999.90;;;10.70;99.90;;;;;;4977477;28;20043;-81
2022/11/16 15:43:09;;;;;;;1999.90;999.90;;;10.70;99.90;;;;;;4970125;28;20082;-79
2022/11/16 15:45:36;;;;;;;1999.90;999.90;;;10.70;99.90;;;;;;4977355;28;20588;-80
2022/11/16 15:48:03;;;;;;;1999.90;999.90;;;10.70;99.90;;;;;;4978029;28;20057;-81
2022/11/16 15:50:29;;;;;;;1999.90;999.90;;;10.70;99.90;;;;;;4978599;28;20035;-81
2022/11/16 15:52:58;;;;;;;1999.90;999.90;;;10.70;99.90;;;;;;4981730;28;20039;-79
2022/11/16 15:55:37;;;;;;;1999.90;999.90;;;10.60;99.90;;;;;;4977416;28;20042;-80
2022/11/16 15:58:02;;;;;;;1999.90;999.90;;;10.60;99.90;;;;;;4979758;28;20050;-80
2022/11/16 16:00:30;;;;;;;1999.90;999.90;;;10.50;99.90;;;;;;4972025;28;20043;-79
2022/11/16 16:03:03;;;;;;;1999.90;999.90;;;10.50;99.90;;;;;;4967554;28;20058;-78
2022/11/16 16:05:38;;;;;;;1999.90;999.90;;;10.40;99.90;;;;;;4972478;28;20039;-78
2022/11/16 16:08:04;;;;;;;1999.90;999.90;;;10.40;99.90;;;;;;4975954;28;20035;-78
2022/11/16 16:10:30;;;;;;;1999.90;999.90;;;10.40;99.90;;;;;;4985782;23;20028;-81
2022/11/16 16:12:58;;;;;;;1999.90;999.90;;;10.40;99.90;;;;;;5015534;28;20050;-79
2022/11/16 16:15:28;;;;;;;1999.90;999.90;;;10.40;99.90;;;;;;5014654;28;20515;-79
2022/11/16 16:17:56;;;;;;;1999.90;999.90;;;10.40;99.90;;;;;;5014962;28;20181;-79
2022/11/16 16:20:24;;;;;;;1999.90;999.90;;;10.40;99.90;;;;;;5015692;28;20118;-81
2022/11/16 16:22:51;;;;;;;1999.90;999.90;;;10.40;99.90;;;;;;4995308;28;20090;-82
2022/11/16 16:25:27;;;;;;;1999.90;999.90;;;10.50;99.90;;;;;;4995252;28;20031;-81
2022/11/16 16:27:53;;;;;;;1999.90;999.90;;;10.50;99.90;;;;;;4997480;28;20035;-79
2022/11/16 16:30:18;;;;;;;1999.90;999.90;;;10.50;99.90;;;;;;4996104;28;20381;-77
2022/11/16 16:32:50;;;;;;;1999.90;999.90;;;10.50;99.90;;;;;;4997694;28;20038;-80
2022/11/16 16:35:22;;;;;;;1999.90;999.90;;;10.50;99.90;;;;;;4995974;28;20066;-79
2022/11/16 16:37:50;;;;;;;1999.90;999.90;;;10.50;99.90;;;;;;4997338;28;20038;-79
2022/11/16 16:40:17;;;;;;;1999.90;999.90;;;10.50;99.90;;;;;;4997610;28;20134;-79
2022/11/16 16:42:43;;;;;;;1999.90;999.90;;;10.60;99.90;;;;;;4994377;28;20127;-79
2022/11/16 16:45:17;;;;;;;1999.90;999.90;;;10.50;99.90;;;;;;4993919;28;20073;-79
2022/11/16 16:47:42;;;;;;;1999.90;999.90;;;10.50;99.90;;;;;;4987299;28;20035;-79
2022/11/16 16:50:08;;;;;;;1999.90;999.90;;;10.50;99.90;;;;;;4996322;28;20382;-79
2022/11/16 16:52:34;;;;;;;1999.90;999.90;;;10.50;99.90;;;;;;4996602;28;20074;-79
2022/11/16 16:55:00;;;;;;;1999.90;999.90;;;10.50;99.90;;;;;;4991713;28;20404;-79
2022/11/16 16:57:25;;;;;;;1999.90;999.90;;;10.40;99.90;;;;;;4998266;28;20039;-78
2022/11/16 16:59:51;;;;;;;1999.90;999.90;;;10.40;99.90;;;;;;4991847;28;20035;-79
2022/11/16 17:02:16;;;;;;;1999.90;999.90;;;10.40;99.90;;;;;;4993169;28;20038;-83
2022/11/16 17:04:42;;;;;;;1999.90;999.90;;;10.40;99.90;;;;;;4994681;28;20175;-77
2022/11/16 17:07:08;;;;;;;1999.90;999.90;;;10.30;99.90;;;;;;4994989;28;20035;-78
2022/11/16 17:09:34;;;;;;;1999.90;999.90;;;10.30;99.90;;;;;;4996330;28;20479;-81
2022/11/16 17:12:00;;;;;;;1999.90;999.90;;;10.20;99.90;;;;;;4983362;28;20039;-83
2022/11/16 17:14:25;;;;;;;1999.90;999.90;;;10.20;99.90;;;;;;4978295;28;20054;-80
2022/11/16 17:16:51;;;;;;;1999.90;999.90;;;10.30;99.90;;;;;;4976718;28;20538;-78
2022/11/16 17:19:17;;;;;;;1999.90;999.90;;;10.30;99.90;;;;;;4979262;28;20393;-80
2022/11/16 17:21:42;;;;;;;1999.90;999.90;;;10.10;99.90;;;;;;4978504;28;20027;-79
2022/11/16 17:24:08;;;;;;;1999.90;999.90;;;10.10;99.90;;;;;;4988496;28;20046;-79
2022/11/16 17:26:34;;;;;;;1999.90;999.90;;;10.00;99.90;;;;;;4993595;28;20039;-79
2022/11/16 17:28:59;;;;;;;1999.90;999.90;;;9.90;99.90;;;;;;4993073;28;20042;-77
2022/11/16 17:31:26;;;;;;;1999.90;999.90;;;9.80;99.90;;;;;;4994856;28;20045;-76